Time;durP1;ratioP1;P1;durP2;ratioP2;P2;SDS_P1;SDS_P2;PMS_P1;PMS_P2;Temp;Humidity;BMP_temperature;BMP_pressure;BME280_temperature;BME280_humidity;BME280_pressure;Samples;Min_cycle;Max_cycle;Signal;HPM_P1;HPM_P2
2024/04/23 00:00:48;;;;;;;9.50;3.55;;;;;;;;;;4979488;28;20634;-76
2024/04/23 00:03:20;;;;;;;8.38;3.67;;;;;;;;;;4980794;28;20041;-76
2024/04/23 00:05:50;;;;;;;15.13;4.22;;;;;;;;;;4953025;28;20008;-76
2024/04/23 00:08:21;;;;;;;11.90;3.80;;;;;;;;;;4979729;28;20040;-75
2024/04/23 00:10:52;;;;;;;8.07;4.00;;;;;;;;;;4953415;28;20015;-75
2024/04/23 00:13:23;;;;;;;6.47;4.00;;;;;;;;;;4979646;28;20032;-78
2024/04/23 00:15:53;;;;;;;8.77;3.45;;;;;;;;;;4978633;28;20355;-73
2024/04/23 00:18:23;;;;;;;10.32;3.58;;;;;;;;;;4953193;28;20004;-75
2024/04/23 00:20:55;;;;;;;11.32;3.58;;;;;;;;;;4978545;28;20374;-78
2024/04/23 00:23:26;;;;;;;7.68;3.42;;;;;;;;;;4979120;28;20033;-74
2024/04/23 00:25:57;;;;;;;16.17;4.00;;;;;;;;;;4979323;28;20034;-78
2024/04/23 00:28:27;;;;;;;8.35;3.67;;;;;;;;;;4979105;28;20831;-75
2024/04/23 00:30:58;;;;;;;8.77;3.50;;;;;;;;;;4951912;28;20015;-74
2024/04/23 00:33:28;;;;;;;9.45;3.50;;;;;;;;;;4979391;28;20028;-74
2024/04/23 00:35:59;;;;;;;7.93;4.43;;;;;;;;;;4979041;28;20005;-75
2024/04/23 00:38:30;;;;;;;8.07;3.72;;;;;;;;;;4979677;28;20048;-76
2024/04/23 00:41:03;;;;;;;6.38;3.30;;;;;;;;;;4979022;28;20032;-75
2024/04/23 00:43:35;;;;;;;6.75;3.75;;;;;;;;;;4976886;28;20037;-75
2024/04/23 00:46:09;;;;;;;9.30;3.45;;;;;;;;;;4951840;28;20015;-73
2024/04/23 00:48:39;;;;;;;11.65;3.88;;;;;;;;;;4978879;28;20976;-72
2024/04/23 00:51:11;;;;;;;7.30;3.53;;;;;;;;;;4980701;28;20033;-77
2024/04/23 00:53:42;;;;;;;7.78;3.67;;;;;;;;;;4958201;28;20008;-74
2024/04/23 00:56:18;;;;;;;4.65;3.72;;;;;;;;;;4936524;28;20211;-75
2024/04/23 00:58:49;;;;;;;9.70;3.75;;;;;;;;;;4982099;28;20032;-76
2024/04/23 01:01:21;;;;;;;5.97;3.28;;;;;;;;;;4981616;28;20040;-74
2024/04/23 01:03:52;;;;;;;7.15;3.60;;;;;;;;;;4955142;28;20008;-78
2024/04/23 01:06:23;;;;;;;7.95;4.25;;;;;;;;;;4983037;28;20485;-73
2024/04/23 01:08:54;;;;;;;7.45;3.72;;;;;;;;;;4983512;28;20056;-78
2024/04/23 01:11:24;;;;;;;9.68;3.78;;;;;;;;;;4982113;28;20033;-76
2024/04/23 01:13:55;;;;;;;6.90;3.75;;;;;;;;;;4982415;28;20029;-78
2024/04/23 01:16:30;;;;;;;10.45;3.85;;;;;;;;;;4981968;28;20028;-76
2024/04/23 01:19:02;;;;;;;11.98;3.65;;;;;;;;;;4980873;28;20034;-76
2024/04/23 01:22:01;;;;;;;5.63;3.85;;;;;;;;;;4981662;28;20105;-74
2024/04/23 01:24:41;;;;;;;13.13;3.70;;;;;;;;;;4981888;28;20044;-75
2024/04/23 01:27:13;;;;;;;7.95;3.58;;;;;;;;;;4982637;28;20536;-74
2024/04/23 01:29:45;;;;;;;9.80;3.25;;;;;;;;;;4955535;28;20019;-76
2024/04/23 01:32:17;;;;;;;7.57;3.88;;;;;;;;;;4981672;28;20029;-73
2024/04/23 01:34:48;;;;;;;14.57;4.40;;;;;;;;;;4981168;28;21133;-74
2024/04/23 01:37:21;;;;;;;7.35;3.67;;;;;;;;;;4981855;28;20487;-79
2024/04/23 01:39:54;;;;;;;6.65;3.83;;;;;;;;;;4980659;28;20041;-78
2024/04/23 01:42:28;;;;;;;7.65;3.90;;;;;;;;;;4954384;28;20008;-75
2024/04/23 01:44:59;;;;;;;6.55;3.83;;;;;;;;;;4981553;28;20048;-76
2024/04/23 01:47:30;;;;;;;8.63;4.28;;;;;;;;;;4954924;28;20032;-74
2024/04/23 01:50:01;;;;;;;6.25;3.88;;;;;;;;;;4955421;28;20015;-76
2024/04/23 01:52:32;;;;;;;8.88;4.00;;;;;;;;;;4956941;28;20026;-73
2024/04/23 01:55:04;;;;;;;6.40;3.92;;;;;;;;;;4991286;28;20025;-73
2024/04/23 01:57:35;;;;;;;14.18;3.92;;;;;;;;;;4992753;28;20380;-74
2024/04/23 02:00:15;;;;;;;13.85;4.40;;;;;;;;;;4962581;28;20052;-76
2024/04/23 02:02:47;;;;;;;7.93;4.03;;;;;;;;;;4981649;28;20037;-74
2024/04/23 02:05:19;;;;;;;11.13;3.83;;;;;;;;;;4980906;28;20545;-75
2024/04/23 02:07:49;;;;;;;7.63;4.28;;;;;;;;;;4981356;28;20040;-74
2024/04/23 02:10:21;;;;;;;8.38;3.63;;;;;;;;;;4954618;28;20008;-78
2024/04/23 02:12:52;;;;;;;18.95;4.45;;;;;;;;;;4981256;28;20032;-76
2024/04/23 02:15:23;;;;;;;7.63;3.72;;;;;;;;;;4953586;28;20009;-74
2024/04/23 02:17:54;;;;;;;5.75;3.92;;;;;;;;;;4981120;28;20033;-74
2024/04/23 02:20:24;;;;;;;12.50;3.75;;;;;;;;;;4980665;28;20037;-77
2024/04/23 02:22:54;;;;;;;7.60;3.85;;;;;;;;;;4954658;28;20015;-75
2024/04/23 02:25:25;;;;;;;7.35;3.90;;;;;;;;;;4980718;28;20482;-76
2024/04/23 02:27:56;;;;;;;8.13;4.05;;;;;;;;;;4980492;28;20483;-76
2024/04/23 02:30:26;;;;;;;10.35;3.97;;;;;;;;;;4980470;28;20011;-76
2024/04/23 02:32:57;;;;;;;7.18;3.67;;;;;;;;;;4984196;28;20021;-75
2024/04/23 02:35:28;;;;;;;8.57;3.90;;;;;;;;;;4992244;28;20037;-73
2024/04/23 02:37:58;;;;;;;10.25;4.18;;;;;;;;;;4992260;28;20029;-74
2024/04/23 02:40:28;;;;;;;6.25;3.65;;;;;;;;;;4980928;28;20032;-78
2024/04/23 02:42:58;;;;;;;8.13;4.10;;;;;;;;;;4954576;28;20008;-76
2024/04/23 02:45:29;;;;;;;11.43;4.22;;;;;;;;;;4980806;28;20033;-76
2024/04/23 02:48:02;;;;;;;7.10;3.80;;;;;;;;;;4979740;28;20783;-73
2024/04/23 02:50:33;;;;;;;11.18;4.93;;;;;;;;;;4979991;28;20460;-75
2024/04/23 02:53:05;;;;;;;9.85;4.20;;;;;;;;;;4980893;28;20894;-78
2024/04/23 02:55:36;;;;;;;5.45;3.55;;;;;;;;;;4981002;28;20032;-77
2024/04/23 02:58:06;;;;;;;5.70;3.70;;;;;;;;;;4980902;28;20038;-77
2024/04/23 03:00:37;;;;;;;7.18;4.10;;;;;;;;;;4980487;28;20044;-75
2024/04/23 03:03:07;;;;;;;5.57;4.30;;;;;;;;;;4980480;28;20005;-78
2024/04/23 03:05:38;;;;;;;9.15;4.10;;;;;;;;;;4954319;28;20008;-75
2024/04/23 03:08:08;;;;;;;9.55;4.78;;;;;;;;;;4980123;28;20029;-75
2024/04/23 03:10:39;;;;;;;7.07;4.47;;;;;;;;;;4980188;28;20472;-76
2024/04/23 03:13:09;;;;;;;9.93;4.50;;;;;;;;;;4954248;28;20004;-74
2024/04/23 03:15:41;;;;;;;7.28;4.45;;;;;;;;;;4980317;28;20029;-77
2024/04/23 03:18:12;;;;;;;8.80;4.28;;;;;;;;;;4979746;28;20487;-77
2024/04/23 03:20:42;;;;;;;8.82;4.43;;;;;;;;;;4980108;28;20032;-78
2024/04/23 03:23:12;;;;;;;15.65;4.60;;;;;;;;;;4980116;28;20538;-76
2024/04/23 03:25:42;;;;;;;7.07;4.15;;;;;;;;;;4980893;28;20036;-76
2024/04/23 03:28:13;;;;;;;15.10;4.43;;;;;;;;;;4953951;28;20008;-74
2024/04/23 03:30:44;;;;;;;9.52;4.50;;;;;;;;;;4980115;28;20123;-74
2024/04/23 03:33:15;;;;;;;10.38;4.60;;;;;;;;;;4979932;28;20036;-76
2024/04/23 03:35:46;;;;;;;9.65;4.28;;;;;;;;;;4980156;28;20044;-74
2024/04/23 03:38:17;;;;;;;8.75;4.65;;;;;;;;;;4954199;28;20469;-77
2024/04/23 03:40:47;;;;;;;10.77;4.20;;;;;;;;;;4979611;28;20992;-76
2024/04/23 03:43:17;;;;;;;5.25;3.00;;;;;;;;;;4979376;28;20004;-74
2024/04/23 03:45:48;;;;;;;7.32;3.90;;;;;;;;;;4980332;28;20032;-73
2024/04/23 03:48:20;;;;;;;13.63;4.10;;;;;;;;;;4980235;28;20036;-74
2024/04/23 03:50:50;;;;;;;7.10;3.42;;;;;;;;;;4980367;28;20036;-72
2024/04/23 03:53:20;;;;;;;8.93;4.03;;;;;;;;;;4979867;28;20005;-73
2024/04/23 03:55:51;;;;;;;9.65;4.32;;;;;;;;;;4979893;28;20385;-73
2024/04/23 03:58:22;;;;;;;6.40;3.88;;;;;;;;;;4953984;28;20005;-77
2024/04/23 04:00:52;;;;;;;4.72;3.75;;;;;;;;;;4954099;28;20015;-73
2024/04/23 04:06:12;;;;;;;6.30;4.20;;;;;;;;;;4978525;28;20505;-76
2024/04/23 04:08:43;;;;;;;6.68;3.15;;;;;;;;;;4980181;28;20036;-74
2024/04/23 04:11:14;;;;;;;8.05;3.97;;;;;;;;;;4952786;28;20015;-76
2024/04/23 04:13:45;;;;;;;6.18;4.00;;;;;;;;;;4979923;28;20037;-75
2024/04/23 04:16:16;;;;;;;7.43;3.55;;;;;;;;;;4954825;28;20029;-73
2024/04/23 04:18:49;;;;;;;6.07;3.72;;;;;;;;;;4978983;28;20033;-72
2024/04/23 04:21:20;;;;;;;6.35;3.55;;;;;;;;;;4979009;28;20466;-75
2024/04/23 04:23:51;;;;;;;6.85;3.75;;;;;;;;;;4979165;28;20036;-76
2024/04/23 04:26:21;;;;;;;6.50;3.70;;;;;;;;;;4979379;28;20015;-77
2024/04/23 04:28:52;;;;;;;5.57;3.78;;;;;;;;;;4977727;28;20491;-76
2024/04/23 04:31:23;;;;;;;6.82;4.10;;;;;;;;;;4978781;28;20005;-76
2024/04/23 04:33:53;;;;;;;8.30;3.78;;;;;;;;;;4979301;28;20029;-73
2024/04/23 04:36:24;;;;;;;7.47;3.97;;;;;;;;;;4979349;28;20543;-73
2024/04/23 04:38:55;;;;;;;8.10;3.88;;;;;;;;;;4952612;28;20693;-76
2024/04/23 04:41:25;;;;;;;8.15;4.22;;;;;;;;;;4979022;28;20004;-75
2024/04/23 04:43:58;;;;;;;5.30;3.72;;;;;;;;;;4979537;28;20031;-77
2024/04/23 04:46:29;;;;;;;7.00;4.30;;;;;;;;;;4978744;28;20033;-75
2024/04/23 04:48:59;;;;;;;5.97;3.78;;;;;;;;;;4978335;28;20041;-77
2024/04/23 04:51:30;;;;;;;4.70;3.88;;;;;;;;;;4979553;28;20008;-77
2024/04/23 04:54:01;;;;;;;5.65;3.88;;;;;;;;;;4978865;28;20037;-74
2024/04/23 04:56:31;;;;;;;7.43;3.85;;;;;;;;;;4979048;28;20344;-75
2024/04/23 04:59:02;;;;;;;9.75;3.92;;;;;;;;;;4979533;28;20044;-75
2024/04/23 05:01:32;;;;;;;7.10;3.88;;;;;;;;;;4979689;28;20040;-76
2024/04/23 05:04:04;;;;;;;8.05;4.05;;;;;;;;;;4979204;28;20044;-75
2024/04/23 05:06:34;;;;;;;9.85;3.70;;;;;;;;;;4979294;28;20028;-77
2024/04/23 05:09:05;;;;;;;4.88;3.65;;;;;;;;;;4952889;28;20015;-74
2024/04/23 05:11:38;;;;;;;10.55;3.92;;;;;;;;;;4952473;28;20097;-72
2024/04/23 05:14:11;;;;;;;6.93;3.60;;;;;;;;;;4979168;28;20478;-74
2024/04/23 05:16:43;;;;;;;6.10;3.72;;;;;;;;;;4952340;28;20010;-73
2024/04/23 05:19:15;;;;;;;13.73;3.95;;;;;;;;;;4978721;28;20036;-76
2024/04/23 05:21:46;;;;;;;5.15;3.88;;;;;;;;;;4979164;28;20033;-75
2024/04/23 05:24:17;;;;;;;5.70;3.70;;;;;;;;;;4978142;28;20028;-75
2024/04/23 05:26:47;;;;;;;10.18;4.40;;;;;;;;;;4978427;28;20048;-73
2024/04/23 05:29:17;;;;;;;6.72;4.35;;;;;;;;;;4978448;28;20040;-79
2024/04/23 05:34:41;;;;;;;12.18;4.05;;;;;;;;;;4963909;28;20018;-76
2024/04/23 05:37:11;;;;;;;9.43;4.05;;;;;;;;;;4978575;28;20056;-76
2024/04/23 05:39:42;;;;;;;6.18;4.25;;;;;;;;;;4927635;28;20048;-76
2024/04/23 05:42:13;;;;;;;7.32;4.68;;;;;;;;;;4930585;28;20028;-79
2024/04/23 05:44:43;;;;;;;8.68;4.38;;;;;;;;;;4981994;28;20044;-77
2024/04/23 05:47:13;;;;;;;9.15;4.22;;;;;;;;;;4981404;28;20044;-75
2024/04/23 05:50:21;;;;;;;9.07;4.50;;;;;;;;;;4982284;28;20522;-75
2024/04/23 05:53:52;;;;;;;8.95;4.47;;;;;;;;;;4981485;28;20338;-75
2024/04/23 05:56:42;;;;;;;8.52;4.75;;;;;;;;;;4981034;28;20029;-77
2024/04/23 05:59:12;;;;;;;8.02;5.18;;;;;;;;;;4981432;28;20033;-74
2024/04/23 06:01:42;;;;;;;7.38;4.50;;;;;;;;;;4981639;28;20047;-74
2024/04/23 06:04:13;;;;;;;7.60;4.93;;;;;;;;;;4980777;28;20028;-73
2024/04/23 06:06:43;;;;;;;9.60;4.90;;;;;;;;;;4980825;28;20501;-75
2024/04/23 06:09:14;;;;;;;11.20;5.28;;;;;;;;;;4981205;28;20036;-75
2024/04/23 06:11:44;;;;;;;10.27;6.38;;;;;;;;;;4981184;28;20822;-76
2024/04/23 06:14:15;;;;;;;17.80;5.82;;;;;;;;;;4981164;28;20036;-76
2024/04/23 06:16:45;;;;;;;9.18;5.50;;;;;;;;;;4981198;28;20040;-75
2024/04/23 06:19:35;;;;;;;8.43;5.18;;;;;;;;;;4980840;28;20398;-76
2024/04/23 06:22:06;;;;;;;11.07;5.55;;;;;;;;;;4954860;28;20612;-76
2024/04/23 06:24:36;;;;;;;15.50;6.70;;;;;;;;;;4980878;28;20040;-74
2024/04/23 06:27:07;;;;;;;10.23;6.22;;;;;;;;;;4982015;28;20036;-74
2024/04/23 06:29:39;;;;;;;10.57;6.45;;;;;;;;;;4980783;28;20036;-73
2024/04/23 06:32:10;;;;;;;7.57;5.93;;;;;;;;;;4980173;28;20512;-76
2024/04/23 06:34:40;;;;;;;11.07;5.80;;;;;;;;;;4953995;28;20045;-73
2024/04/23 06:37:11;;;;;;;7.93;5.85;;;;;;;;;;4980463;28;20034;-75
2024/04/23 06:39:44;;;;;;;11.30;6.20;;;;;;;;;;4981259;28;20033;-75
2024/04/23 06:42:15;;;;;;;10.40;5.63;;;;;;;;;;4980744;28;20380;-76
2024/04/23 06:44:45;;;;;;;14.15;6.18;;;;;;;;;;4980315;28;20021;-77
2024/04/23 06:47:16;;;;;;;9.48;5.75;;;;;;;;;;4980993;28;20032;-74
2024/04/23 06:49:47;;;;;;;13.13;6.82;;;;;;;;;;4979434;28;20008;-74
2024/04/23 06:52:18;;;;;;;10.43;6.22;;;;;;;;;;4980369;28;20573;-75
2024/04/23 06:54:48;;;;;;;8.75;6.35;;;;;;;;;;4981664;28;20040;-76
2024/04/23 06:57:18;;;;;;;10.95;6.18;;;;;;;;;;4980204;28;20486;-74
2024/04/23 06:59:48;;;;;;;13.40;6.90;;;;;;;;;;4980859;28;20004;-76
2024/04/23 07:02:19;;;;;;;8.40;6.70;;;;;;;;;;4980292;28;20032;-74
2024/04/23 07:04:49;;;;;;;8.70;5.65;;;;;;;;;;4980946;28;20052;-78
2024/04/23 07:07:20;;;;;;;12.45;6.45;;;;;;;;;;4980577;28;20032;-73
2024/04/23 07:09:50;;;;;;;14.45;6.13;;;;;;;;;;4981685;28;20040;-75
2024/04/23 07:12:21;;;;;;;9.25;5.80;;;;;;;;;;4980682;28;20004;-78
2024/04/23 07:14:52;;;;;;;12.88;6.32;;;;;;;;;;4980685;28;20497;-75
2024/04/23 07:17:22;;;;;;;11.07;6.20;;;;;;;;;;4981350;28;20037;-72
2024/04/23 07:19:53;;;;;;;9.60;5.32;;;;;;;;;;4986614;28;20049;-76
2024/04/23 07:22:26;;;;;;;8.52;5.78;;;;;;;;;;4985969;28;20573;-73
2024/04/23 07:24:56;;;;;;;10.43;6.00;;;;;;;;;;4986791;28;20029;-73
2024/04/23 07:27:27;;;;;;;8.90;5.88;;;;;;;;;;4985727;28;20040;-72
2024/04/23 07:29:57;;;;;;;10.45;5.55;;;;;;;;;;4980756;28;20032;-72
2024/04/23 07:32:28;;;;;;;10.43;6.53;;;;;;;;;;4980643;28;20377;-74
2024/04/23 07:34:59;;;;;;;9.90;5.60;;;;;;;;;;4980337;28;20032;-75
2024/04/23 07:37:30;;;;;;;9.27;5.47;;;;;;;;;;4979245;28;20040;-78
2024/04/23 07:40:00;;;;;;;10.57;5.50;;;;;;;;;;4979743;28;20005;-77
2024/04/23 07:42:30;;;;;;;12.15;5.70;;;;;;;;;;4953352;28;20033;-75
2024/04/23 07:45:01;;;;;;;9.10;5.55;;;;;;;;;;4980566;28;20036;-77
2024/04/23 07:47:36;;;;;;;6.82;5.22;;;;;;;;;;4980509;28;20033;-76
2024/04/23 07:50:07;;;;;;;13.63;5.35;;;;;;;;;;4979930;28;20029;-76
2024/04/23 07:52:38;;;;;;;12.23;5.30;;;;;;;;;;4979280;28;20015;-74
2024/04/23 07:55:08;;;;;;;7.75;5.03;;;;;;;;;;4979402;28;20049;-74
2024/04/23 07:57:39;;;;;;;10.82;5.43;;;;;;;;;;4952041;28;20009;-78
2024/04/23 08:00:10;;;;;;;8.98;5.50;;;;;;;;;;4982519;28;20033;-74
2024/04/23 08:02:40;;;;;;;7.47;4.75;;;;;;;;;;4983844;28;20053;-73
2024/04/23 08:05:11;;;;;;;9.60;5.57;;;;;;;;;;4962913;28;20017;-76
2024/04/23 08:07:42;;;;;;;9.95;5.32;;;;;;;;;;4979537;28;20033;-74
2024/04/23 08:10:17;;;;;;;11.98;5.43;;;;;;;;;;4979558;28;20481;-77
2024/04/23 08:12:50;;;;;;;6.63;4.57;;;;;;;;;;4978600;28;20005;-76
2024/04/23 08:15:21;;;;;;;8.18;5.00;;;;;;;;;;4953907;28;20040;-75
2024/04/23 08:17:53;;;;;;;12.02;5.47;;;;;;;;;;4979846;28;20033;-77
2024/04/23 08:20:24;;;;;;;7.68;5.03;;;;;;;;;;4980041;28;20044;-74
2024/04/23 08:22:58;;;;;;;9.45;4.93;;;;;;;;;;4979961;28;20868;-78
2024/04/23 08:25:30;;;;;;;6.80;4.68;;;;;;;;;;4979334;28;20394;-78
2024/04/23 08:28:01;;;;;;;8.93;4.72;;;;;;;;;;4979287;28;20040;-75
2024/04/23 08:30:32;;;;;;;4.95;3.92;;;;;;;;;;4979278;28;20560;-78
2024/04/23 08:33:02;;;;;;;7.28;4.88;;;;;;;;;;4978971;28;20482;-76
2024/04/23 08:35:34;;;;;;;7.40;4.47;;;;;;;;;;4980249;28;20056;-76
2024/04/23 08:38:05;;;;;;;6.60;4.53;;;;;;;;;;4978669;28;20040;-76
2024/04/23 08:40:36;;;;;;;6.82;4.55;;;;;;;;;;4979380;28;20029;-75
2024/04/23 08:43:15;;;;;;;7.60;4.70;;;;;;;;;;4979098;28;20041;-77
2024/04/23 08:45:47;;;;;;;10.15;5.72;;;;;;;;;;4978980;28;20040;-78
2024/04/23 08:48:19;;;;;;;8.38;5.72;;;;;;;;;;4977015;28;20448;-76
2024/04/23 08:50:50;;;;;;;9.32;6.07;;;;;;;;;;4979230;28;20032;-77
2024/04/23 08:53:20;;;;;;;10.05;5.78;;;;;;;;;;4979083;28;20005;-75
2024/04/23 08:55:56;;;;;;;12.52;6.00;;;;;;;;;;4979197;28;20037;-74
2024/04/23 08:58:26;;;;;;;;;;;;;;;;;;4979091;28;20036;-79
2024/04/23 09:01:00;;;;;;;10.88;5.72;;;;;;;;;;4979276;28;19956;-74
2024/04/23 09:03:42;;;;;;;8.15;5.60;;;;;;;;;;4979203;28;20033;-76
2024/04/23 09:06:13;;;;;;;8.30;5.18;;;;;;;;;;4978750;28;20033;-74
2024/04/23 09:08:45;;;;;;;7.63;5.10;;;;;;;;;;4979530;28;20045;-77
2024/04/23 09:11:15;;;;;;;9.38;5.70;;;;;;;;;;4979082;28;20040;-77
2024/04/23 09:13:46;;;;;;;10.23;5.32;;;;;;;;;;4978530;28;20015;-76
2024/04/23 09:16:17;;;;;;;15.80;5.80;;;;;;;;;;4981468;28;20033;-80
2024/04/23 09:18:49;;;;;;;14.57;4.97;;;;;;;;;;4981676;28;20048;-77
2024/04/23 09:21:20;;;;;;;11.68;4.90;;;;;;;;;;4981678;28;20368;-78
2024/04/23 09:23:50;;;;;;;10.15;5.07;;;;;;;;;;4955385;28;20475;-79
2024/04/23 09:26:25;;;;;;;5.55;4.25;;;;;;;;;;4981470;28;20058;-78
2024/04/23 09:28:56;;;;;;;5.70;4.57;;;;;;;;;;4981421;28;20045;-74
2024/04/23 09:31:27;;;;;;;7.95;4.65;;;;;;;;;;4981074;28;20044;-77
2024/04/23 09:34:02;;;;;;;9.13;4.20;;;;;;;;;;4981663;28;20438;-75
2024/04/23 09:36:33;;;;;;;6.28;4.57;;;;;;;;;;4981882;28;20009;-75
2024/04/23 09:39:14;;;;;;;12.20;4.53;;;;;;;;;;4981365;28;20037;-76
2024/04/23 09:41:57;;;;;;;9.20;4.75;;;;;;;;;;4981630;28;20032;-75
2024/04/23 09:44:28;;;;;;;5.43;3.97;;;;;;;;;;4981706;28;20355;-75
2024/04/23 09:47:01;;;;;;;9.35;4.35;;;;;;;;;;4955967;28;20005;-76
2024/04/23 09:49:33;;;;;;;7.97;4.45;;;;;;;;;;4981320;28;20379;-75
2024/04/23 09:52:06;;;;;;;6.35;4.53;;;;;;;;;;4980886;28;20015;-77
2024/04/23 09:54:42;;;;;;;14.00;4.53;;;;;;;;;;4955687;28;20005;-76
2024/04/23 09:57:17;;;;;;;12.48;4.80;;;;;;;;;;4981487;28;20381;-74
2024/04/23 09:59:47;;;;;;;8.02;4.45;;;;;;;;;;4981936;28;20037;-77
2024/04/23 10:02:25;;;;;;;6.63;4.55;;;;;;;;;;4955552;28;20349;-77
2024/04/23 10:05:10;;;;;;;7.82;4.22;;;;;;;;;;4980237;28;20011;-77
2024/04/23 10:08:08;;;;;;;10.27;4.90;;;;;;;;;;4980958;28;20036;-78
2024/04/23 10:10:47;;;;;;;14.75;4.93;;;;;;;;;;4980871;28;20388;-78
2024/04/23 10:13:26;;;;;;;12.63;5.00;;;;;;;;;;4954355;28;20008;-78
2024/04/23 10:16:01;;;;;;;7.25;4.78;;;;;;;;;;4981597;28;20425;-76
2024/04/23 10:18:41;;;;;;;10.65;4.88;;;;;;;;;;4980802;28;20060;-79
2024/04/23 10:21:17;;;;;;;8.30;4.95;;;;;;;;;;4980749;28;20011;-76
2024/04/23 10:23:48;;;;;;;7.72;4.60;;;;;;;;;;4981123;28;20036;-76
2024/04/23 10:26:20;;;;;;;9.50;5.45;;;;;;;;;;4954540;28;20011;-77
2024/04/23 10:28:53;;;;;;;7.00;4.25;;;;;;;;;;4954201;28;20671;-78
2024/04/23 10:31:25;;;;;;;10.13;4.78;;;;;;;;;;4951616;28;20029;-79
2024/04/23 10:33:56;;;;;;;12.73;4.47;;;;;;;;;;4950770;29;20005;-75
2024/04/23 10:36:29;;;;;;;10.00;4.45;;;;;;;;;;4948857;29;20002;-76
2024/04/23 10:39:03;;;;;;;15.55;4.03;;;;;;;;;;4949028;29;20028;-78
2024/04/23 10:41:36;;;;;;;6.82;4.90;;;;;;;;;;4973601;28;20009;-77
2024/04/23 10:44:11;;;;;;;11.45;4.53;;;;;;;;;;4980010;28;20666;-77
2024/04/23 10:46:43;;;;;;;6.68;4.13;;;;;;;;;;4979441;28;20052;-77
2024/04/23 10:49:16;;;;;;;9.05;3.97;;;;;;;;;;4979845;28;20037;-74
2024/04/23 10:51:50;;;;;;;5.97;4.05;;;;;;;;;;4979391;28;20040;-75
2024/04/23 10:54:22;;;;;;;9.40;4.55;;;;;;;;;;4980693;28;20011;-76
2024/04/23 10:56:59;;;;;;;11.63;4.70;;;;;;;;;;4954380;28;20056;-73
2024/04/23 10:59:31;;;;;;;5.47;3.63;;;;;;;;;;4981071;28;20036;-74
2024/04/23 11:02:08;;;;;;;10.55;4.30;;;;;;;;;;4980489;28;20040;-77
2024/04/23 11:04:46;;;;;;;9.93;5.38;;;;;;;;;;4980646;28;20004;-78
2024/04/23 11:07:27;;;;;;;15.90;8.43;;;;;;;;;;4980187;28;20029;-75
2024/04/23 11:10:06;;;;;;;13.27;6.15;;;;;;;;;;4980871;28;20028;-73
2024/04/23 11:12:37;;;;;;;9.07;5.30;;;;;;;;;;4954650;28;20004;-74
2024/04/23 11:15:17;;;;;;;9.52;5.13;;;;;;;;;;4980098;28;20018;-76
2024/04/23 11:17:47;;;;;;;12.27;5.20;;;;;;;;;;4953261;28;20040;-80
2024/04/23 11:20:18;;;;;;;13.68;6.00;;;;;;;;;;4980432;28;20033;-75
2024/04/23 11:22:59;;;;;;;11.77;5.80;;;;;;;;;;4980792;28;20040;-75
2024/04/23 11:25:34;;;;;;;11.13;5.70;;;;;;;;;;4980482;28;20032;-77
2024/04/23 11:28:05;;;;;;;12.57;6.32;;;;;;;;;;4980773;28;20033;-76
2024/04/23 11:30:38;;;;;;;10.13;6.55;;;;;;;;;;4980046;28;20040;-76
2024/04/23 11:33:10;;;;;;;13.20;6.70;;;;;;;;;;4979452;28;20508;-79
2024/04/23 11:35:40;;;;;;;10.90;5.82;;;;;;;;;;4953713;28;20614;-77
2024/04/23 11:38:11;;;;;;;7.32;5.70;;;;;;;;;;4979706;28;20001;-79
2024/04/23 11:40:42;;;;;;;6.75;4.85;;;;;;;;;;4978966;28;20378;-79
2024/04/23 11:43:17;;;;;;;6.57;4.38;;;;;;;;;;4953575;28;20005;-75
2024/04/23 11:45:48;;;;;;;4.82;3.40;;;;;;;;;;4979622;28;20117;-77
2024/04/23 11:48:18;;;;;;;8.48;4.03;;;;;;;;;;4979402;28;20040;-74
2024/04/23 11:50:49;;;;;;;7.13;3.90;;;;;;;;;;4980163;28;20045;-78
2024/04/23 11:53:19;;;;;;;8.13;4.00;;;;;;;;;;4978925;28;20028;-75
2024/04/23 11:55:50;;;;;;;6.53;3.90;;;;;;;;;;4980167;28;20393;-74
2024/04/23 11:58:21;;;;;;;8.57;4.88;;;;;;;;;;4979700;28;20494;-77
2024/04/23 12:00:53;;;;;;;10.50;3.88;;;;;;;;;;4979960;28;20040;-78
2024/04/23 12:03:25;;;;;;;5.88;3.38;;;;;;;;;;4979308;28;20066;-75
2024/04/23 12:05:55;;;;;;;5.22;3.45;;;;;;;;;;4980050;28;20032;-77
2024/04/23 12:08:26;;;;;;;6.28;3.15;;;;;;;;;;4979453;28;20315;-75
2024/04/23 12:10:57;;;;;;;8.85;5.72;;;;;;;;;;4979564;28;20036;-75
2024/04/23 12:13:29;;;;;;;6.68;3.33;;;;;;;;;;4979380;28;20011;-77
2024/04/23 12:16:04;;;;;;;7.22;3.00;;;;;;;;;;4979693;28;20036;-73
2024/04/23 12:18:41;;;;;;;5.38;2.85;;;;;;;;;;4979027;28;20040;-74
2024/04/23 12:21:11;;;;;;;5.28;2.55;;;;;;;;;;4979234;28;20028;-77
2024/04/23 12:23:42;;;;;;;10.50;2.60;;;;;;;;;;4979210;28;20029;-74
2024/04/23 12:26:17;;;;;;;4.82;2.60;;;;;;;;;;4979864;28;20036;-75
2024/04/23 12:28:48;;;;;;;13.57;2.67;;;;;;;;;;4979624;28;20044;-75
2024/04/23 12:31:20;;;;;;;5.82;2.80;;;;;;;;;;4979738;28;20045;-73
2024/04/23 12:34:00;;;;;;;9.20;2.75;;;;;;;;;;4952667;28;20015;-77
2024/04/23 12:36:31;;;;;;;6.35;2.72;;;;;;;;;;4978010;28;20001;-76
2024/04/23 12:39:10;;;;;;;12.30;3.60;;;;;;;;;;4978816;28;20041;-78
2024/04/23 12:41:42;;;;;;;5.32;2.67;;;;;;;;;;4981776;28;20029;-76
2024/04/23 12:44:15;;;;;;;8.02;2.45;;;;;;;;;;4954819;28;20056;-75
2024/04/23 12:46:45;;;;;;;11.68;2.63;;;;;;;;;;4979826;28;20058;-76
2024/04/23 12:49:16;;;;;;;7.97;3.67;;;;;;;;;;4979599;28;20446;-74
2024/04/23 12:51:47;;;;;;;5.60;2.83;;;;;;;;;;4982467;28;20037;-74
2024/04/23 12:54:23;;;;;;;11.45;2.80;;;;;;;;;;4981454;28;20059;-76
2024/04/23 12:56:57;;;;;;;9.95;6.18;;;;;;;;;;4981716;28;20037;-76
2024/04/23 12:59:30;;;;;;;8.60;3.28;;;;;;;;;;4981594;28;20009;-76
2024/04/23 13:02:00;;;;;;;10.00;3.00;;;;;;;;;;4981393;28;20469;-75
2024/04/23 13:04:31;;;;;;;11.00;2.90;;;;;;;;;;4981329;28;20037;-78
2024/04/23 13:07:01;;;;;;;9.93;3.03;;;;;;;;;;4982106;28;20370;-77
2024/04/23 13:09:31;;;;;;;4.70;2.35;;;;;;;;;;4955573;28;20686;-76
2024/04/23 13:12:09;;;;;;;8.88;3.50;;;;;;;;;;4956135;28;20029;-76
2024/04/23 13:14:39;;;;;;;9.70;3.20;;;;;;;;;;4981311;28;20007;-78
2024/04/23 13:17:10;;;;;;;13.48;3.30;;;;;;;;;;4981653;28;20048;-74
2024/04/23 13:19:44;;;;;;;9.80;2.97;;;;;;;;;;4955020;28;20008;-79
2024/04/23 13:22:22;;;;;;;10.98;2.83;;;;;;;;;;4982235;28;20045;-75
2024/04/23 13:24:52;;;;;;;7.75;2.83;;;;;;;;;;4981129;28;20037;-77
2024/04/23 13:27:23;;;;;;;10.73;3.35;;;;;;;;;;4981307;28;20033;-77
2024/04/23 13:29:53;;;;;;;10.15;3.53;;;;;;;;;;4954538;28;20022;-80
2024/04/23 13:32:24;;;;;;;5.93;3.03;;;;;;;;;;4982504;28;20036;-75
2024/04/23 13:34:56;;;;;;;4.88;2.80;;;;;;;;;;4983041;28;20009;-78
2024/04/23 13:37:28;;;;;;;6.72;2.55;;;;;;;;;;4980908;28;20370;-79
2024/04/23 13:40:02;;;;;;;4.90;3.60;;;;;;;;;;4981383;28;20008;-76
2024/04/23 13:42:33;;;;;;;14.07;4.35;;;;;;;;;;4981037;28;20378;-74
2024/04/23 13:45:05;;;;;;;4.78;2.38;;;;;;;;;;4955174;28;20386;-76
2024/04/23 13:47:39;;;;;;;5.53;2.63;;;;;;;;;;4980873;28;20011;-77
2024/04/23 13:50:11;;;;;;;6.53;2.28;;;;;;;;;;4980323;28;20611;-75
2024/04/23 13:52:43;;;;;;;3.92;2.00;;;;;;;;;;4981245;28;20008;-78
2024/04/23 13:55:14;;;;;;;3.30;2.03;;;;;;;;;;4980639;28;20459;-77
2024/04/23 13:57:45;;;;;;;4.50;1.98;;;;;;;;;;4981691;28;20036;-79
2024/04/23 14:00:17;;;;;;;3.63;1.85;;;;;;;;;;4979380;28;20014;-76
2024/04/23 14:02:47;;;;;;;4.72;1.50;;;;;;;;;;4981143;28;20036;-77
2024/04/23 14:05:19;;;;;;;3.53;1.42;;;;;;;;;;4980404;28;20028;-77
2024/04/23 14:07:51;;;;;;;3.05;1.70;;;;;;;;;;4980926;28;20369;-78
2024/04/23 14:10:21;;;;;;;6.18;1.83;;;;;;;;;;4954838;28;20464;-81
2024/04/23 14:12:52;;;;;;;5.68;1.20;;;;;;;;;;4980707;28;20036;-78
2024/04/23 14:15:23;;;;;;;2.15;1.30;;;;;;;;;;4980350;28;20015;-77
2024/04/23 14:17:55;;;;;;;2.55;1.20;;;;;;;;;;4980813;28;20594;-79
2024/04/23 14:20:25;;;;;;;4.65;1.50;;;;;;;;;;4980922;28;20029;-77
2024/04/23 14:22:56;;;;;;;2.67;1.20;;;;;;;;;;4981033;28;20033;-75
2024/04/23 14:25:26;;;;;;;2.95;1.50;;;;;;;;;;4980585;28;20049;-76
2024/04/23 14:27:57;;;;;;;4.80;1.58;;;;;;;;;;4980058;28;20032;-80
2024/04/23 14:30:28;;;;;;;3.08;1.67;;;;;;;;;;4953436;28;20036;-77
2024/04/23 14:32:59;;;;;;;5.50;1.70;;;;;;;;;;4980712;28;20023;-78
2024/04/23 14:35:31;;;;;;;9.80;7.15;;;;;;;;;;4980989;28;20004;-76
2024/04/23 14:38:02;;;;;;;8.85;2.10;;;;;;;;;;4981966;28;20033;-78
2024/04/23 14:40:33;;;;;;;2.22;1.50;;;;;;;;;;4954303;28;20043;-76
2024/04/23 14:43:03;;;;;;;3.40;1.42;;;;;;;;;;4954039;28;20481;-76
2024/04/23 14:45:34;;;;;;;7.32;1.60;;;;;;;;;;4980557;28;20004;-79
2024/04/23 14:48:05;;;;;;;6.70;1.60;;;;;;;;;;4980504;28;20075;-79
2024/04/23 14:50:37;;;;;;;5.78;1.40;;;;;;;;;;4954261;28;20033;-74
2024/04/23 14:53:07;;;;;;;2.95;1.50;;;;;;;;;;4980706;28;20541;-78
2024/04/23 14:55:38;;;;;;;4.75;1.85;;;;;;;;;;4954670;28;20334;-77
2024/04/23 14:58:09;;;;;;;2.25;1.60;;;;;;;;;;4980831;28;20033;-76
2024/04/23 15:00:40;;;;;;;9.75;1.98;;;;;;;;;;4980008;28;20029;-79
2024/04/23 15:03:16;;;;;;;4.40;1.40;;;;;;;;;;4980944;28;20485;-78
2024/04/23 15:05:49;;;;;;;3.10;1.33;;;;;;;;;;4980340;28;20037;-77
2024/04/23 15:08:26;;;;;;;3.17;1.73;;;;;;;;;;4954220;28;20040;-77
2024/04/23 15:10:59;;;;;;;3.20;1.40;;;;;;;;;;4980434;28;20019;-78
2024/04/23 15:13:29;;;;;;;4.40;1.38;;;;;;;;;;4980114;28;20030;-77
2024/04/23 15:16:02;;;;;;;2.22;1.45;;;;;;;;;;4980927;28;20019;-74